Flight Track Log - Related Links

Times and Time Zones

All times are in EDT time to prevent confusion due to time zone crossing. See the JBU128 flight status page for this flight to view local times or setup timezone preferences in your user account.

Time Position Orientation Groundspeed Altitude Reporting Facility
EDT Latitude Longitude Course Direction KTS MPH feet Rate Location/Type
Tue 11:02:09 PM 40.6667 -73.7167 14° North 200 230 2,500  Level New York TRACON
Tue 11:03:09 PM 40.6667 -73.6333 90° East 254 292 5,200 3,100 Climbing New York TRACON
Tue 11:04:00 PM 40.9556 -73.5972 21° North  Level FlightAware Approximate
Tue 11:04:09 PM 40.7000 -73.5500 62° Northeast 280 322 8,700  Level New York TRACON
Tue 11:05:00 PM 41.0397 -73.5513 27° Northeast  Level FlightAware Approximate
Tue 11:06:00 PM 41.1210 -73.4971 27° Northeast  Level FlightAware Approximate
Tue 11:06:35 PM 40.8872 -73.4231 27° Northeast 322 371 14,000  Level Boston Center
Tue 11:07:00 PM 41.2042 -73.4486 14° North  Level FlightAware Approximate
Tue 11:07:35 PM 40.9875 -73.4053 North 334 384 16,800  Level Boston Center
Tue 11:08:35 PM 41.0833 -73.3900 North 362 417 17,600 1,600 Climbing Boston Center
Tue 11:09:35 PM 41.1983 -73.3697 North 380 437 20,000 1,700 Climbing Boston Center
Tue 11:10:35 PM 41.3067 -73.3492 North 385 443 21,000 500 Climbing Boston Center
Tue 11:11:35 PM 41.4236 -73.3258 North 405 466 21,000  Level Boston Center
Tue 11:12:35 PM 41.5283 -73.2553 27° Northeast 411 473 21,000  Level Boston Center
Tue 11:13:47 PM 41.6314 -73.1400 40° Northeast 417 480 21,000  Level Boston Center
Tue 11:14:47 PM 41.7669 -73.1219 North 410 472 21,000  Level Boston Center
Tue 11:15:47 PM 41.8794 -73.1261 358° North 395 455 21,000  Level Boston Center
Tue 11:16:47 PM 41.9939 -73.1272 360° North 401 461 21,000  Level Boston Center
Tue 11:17:47 PM 42.1086 -73.1286 359° North 401 461 21,000  Level Boston Center
Tue 11:18:47 PM 42.2233 -73.1297 360° North 401 461 21,000  Level Boston Center
Tue 11:19:47 PM 42.3358 -73.1339 358° North 401 461 21,000  Level Boston Center
Tue 11:20:47 PM 42.4422 -73.1236 North 406 467 21,000  Level Boston Center
Tue 11:21:47 PM 42.5547 -73.1278 358° North 406 467 21,000  Level Boston Center
Tue 11:22:47 PM 42.6817 -73.1347 358° North 401 461 21,000  Level Boston Center
Tue 11:23:47 PM 42.7942 -73.1361 359° North 401 461 21,000  Level Boston Center
Tue 11:24:59 PM 42.9089 -73.1375 359° North 406 467 21,000  Level Boston Center
Tue 11:26:11 PM 43.0464 -73.1389 360° North 406 467 21,000  Level Boston Center
Tue 11:27:11 PM 43.1819 -73.1406 359° North 406 467 21,000  Level Boston Center
Tue 11:28:11 PM 43.2964 -73.1419 359° North 401 461 21,000 -150 Level Boston Center
Tue 11:29:11 PM 43.3861 -73.1428 360° North 401 461 20,700 -1,350 Descending Boston Center
Tue 11:30:11 PM 43.5111 -73.1472 359° North 388 447 18,300 -2,550 Descending Boston Center
Tue 11:31:11 PM 43.6131 -73.1483 360° North 374 430 15,600 -2,550 Descending Boston Center
Tue 11:32:11 PM 43.7008 -73.1464 North 361 415 13,200 -2,250 Descending Boston Center
Tue 11:33:11 PM 43.7986 -73.1478 359° North 348 400 11,100 -1,100 Descending Boston Center
Tue 11:34:11 PM 43.8861 -73.1486 360° North 332 382 11,000 -250 Descending Boston Center
Tue 11:35:11 PM 43.9717 -73.1497 359° North 285 328 10,600 -1,250 Descending Boston Center
Tue 11:36:11 PM 44.0489 -73.1392 North 273 314 8,500 -2,050 Descending Boston Center
Tue 11:37:11 PM 44.1175 -73.1225 10° North 262 302 6,500 -2,000 Descending Boston Center
Tue 11:38:11 PM 44.1864 -73.1061 10° North 255 293 4,500 -1,150 Descending Boston Center
Tue 11:39:11 PM 44.2450 -73.0950 North 229 264 4,200 -300 Descending Boston Center
Tue 11:40:11 PM 44.2928 -73.0781 14° North 192 221 3,900 -500 Descending Boston Center
Tue 11:41:11 PM 44.3450 -73.0669 North 182 209 3,200 -650 Descending Boston Center
Tue 11:42:11 PM 44.3867 -73.0675 359° North 168 193 2,600 -800 Descending Boston Center
Tue 11:43:11 PM 44.4242 -73.0767 350° North 148 170 1,600 -800 Descending Boston Center
Tue 11:44:11 PM 44.4447 -73.1117 309° West 127 146 1,000 -600 Descending Boston Center

Login

Don't have an account? Register now (free) for customized features, flight alerts, and more!